< Cyclone 201011 2010 Season Cyclone 201013 >
Cyclone 201012 (Robyn)
General InformationTrack Information on Google MapsDetailed Wind InformationList of All Images || ResourceGoogle EarthGE AnimationAtom FeedGeoJSON
Detalied Best Track (Time Zone = UTC)
Year Month Day Hour Lat. Long. Pressure (hPa) Wind (kt) Class Image Chart
2010 4 1 00 -8.7 93.3 1004 20 2 Image --
2010 4 1 06 -8.8 93.1 1002 25 2 Image --
2010 4 1 12 -9.3 93.1 1002 25 2 Image --
2010 4 1 18 -10.0 93.0 1000 30 2 Image --
2010 4 2 00 -10.4 92.9 1000 30 2 Image --
2010 4 2 06 -11.1 92.7 1000 35 3 Image --
2010 4 2 12 -11.7 92.5 998 35 3 Image --
2010 4 2 18 -12.3 92.4 998 35 3 Image --
2010 4 3 00 -12.8 92.4 996 35 3 Image --
2010 4 3 06 -13.2 92.4 994 40 3 Image --
2010 4 3 12 -13.5 92.4 994 40 3 Image --
2010 4 3 18 -13.8 92.4 990 45 3 Image --
2010 4 4 00 -14.1 92.3 990 45 3 Image --
2010 4 4 06 -14.4 92.0 988 50 4 Image --
2010 4 4 12 -14.7 91.8 985 55 4 Image --
2010 4 4 18 -15.1 91.5 985 55 4 Image --
2010 4 5 00 -15.5 91.4 980 60 4 Image --
2010 4 5 06 -16.0 91.6 985 55 4 Image --
2010 4 5 12 -16.0 92.2 986 55 4 Image --
2010 4 5 18 -15.9 92.2 988 50 4 Image --
2010 4 6 00 -15.7 92.1 994 40 3 Image --
2010 4 6 06 -15.4 91.8 996 35 3 Image --
2010 4 6 12 -15.1 91.5 996 35 3 Image --
2010 4 6 18 -15.3 91.1 996 35 3 Image --
2010 4 7 00 -15.7 90.7 996 35 3 Image --
2010 4 7 06 -15.9 90.2 998 30 2 Image --
< Cyclone 201011 2010 Season Cyclone 201013 >

Help